AEE317 EFHK-UUWW
Flight info
| Callsign | AEE317 |
|---|---|
| Flight time | N/A |
| Altitude | 37000 |
| Route | ARVEP T82 RATMU DCT INLOG T73 DESUD T834 ADOKU/K0822F270 T834 BEKIP BEKIP3B |
| Aircraft | B737/M-SDE2E3FGHIRWXY/LB1 |
Departure
| Time | 2026-05-04 10:04 |
|---|---|
| Airport | Helsinki Vantaa Airport (EFHK) |
Arrival
| Time | N/A |
|---|---|
| Airport | Vnukovo International Airport (UUWW) |
| Time | Latitude | Longitude | Altitude | Speed | Heading |
|---|---|---|---|---|---|
| 2026-05-04 09:31 | 60.31908 | 24.96615 | 166 ft | 0 kts | 137° |
| 2026-05-04 09:53 | 60.31909 | 24.96615 | 166 ft | 1 kts | 137° |
| 2026-05-04 09:53 | 60.31926 | 24.96582 | 166 ft | 4 kts | 138° |
| 2026-05-04 09:53 | 60.31942 | 24.96552 | 166 ft | 4 kts | 146° |
| 2026-05-04 09:54 | 60.31960 | 24.96547 | 166 ft | 4 kts | 222° |
| 2026-05-04 09:54 | 60.31977 | 24.96584 | 165 ft | 4 kts | 229° |
| 2026-05-04 09:54 | 60.31982 | 24.96597 | 165 ft | 1 kts | 227° |
| 2026-05-04 09:57 | 60.31960 | 24.96546 | 166 ft | 7 kts | 228° |
| 2026-05-04 09:58 | 60.31921 | 24.96459 | 166 ft | 9 kts | 227° |
| 2026-05-04 09:58 | 60.31880 | 24.96370 | 166 ft | 8 kts | 227° |
| 2026-05-04 09:58 | 60.31855 | 24.96267 | 166 ft | 8 kts | 262° |
| 2026-05-04 10:00 | 60.32298 | 24.95345 | 175 ft | 22 kts | 317° |
| 2026-05-04 10:00 | 60.32408 | 24.95229 | 177 ft | 18 kts | 343° |
| 2026-05-04 10:02 | 60.33049 | 24.94420 | 194 ft | 10 kts | 273° |
| 2026-05-04 10:04 | 60.31825 | 24.91540 | 303 ft | 176 kts | 229° |
| 2026-05-04 10:04 | 60.30997 | 24.89594 | 984 ft | 192 kts | 231° |
| 2026-05-04 10:04 | 60.30132 | 24.87586 | 2074 ft | 181 kts | 229° |
| 2026-05-04 10:04 | 60.29516 | 24.85333 | 2830 ft | 199 kts | 258° |
| 2026-05-04 10:05 | 60.29655 | 24.82353 | 3111 ft | 235 kts | 290° |
| 2026-05-04 10:05 | 60.30547 | 24.79426 | 3725 ft | 255 kts | 301° |
| 2026-05-04 10:05 | 60.31517 | 24.76396 | 4596 ft | 262 kts | 298° |
| 2026-05-04 10:05 | 60.32465 | 24.73348 | 5881 ft | 253 kts | 304° |
| 2026-05-04 10:06 | 60.33550 | 24.70575 | 6996 ft | 252 kts | 302° |
| 2026-05-04 10:06 | 60.34587 | 24.67693 | 7893 ft | 256 kts | 297° |
| 2026-05-04 10:06 | 60.35462 | 24.64487 | 8617 ft | 267 kts | 298° |
| 2026-05-04 10:08 | 60.46804 | 24.63139 | 13267 ft | 352 kts | 49° |
| 2026-05-04 10:08 | 60.48208 | 24.67377 | 13532 ft | 378 kts | 65° |
| 2026-05-04 10:08 | 60.49033 | 24.72607 | 13397 ft | 408 kts | 86° |
| 2026-05-04 10:08 | 60.48993 | 24.78490 | 13646 ft | 421 kts | 98° |
| 2026-05-04 10:09 | 60.48783 | 24.84180 | 15542 ft | 381 kts | 98° |
| 2026-05-04 10:09 | 60.48515 | 24.89198 | 17699 ft | 345 kts | 108° |
| 2026-05-04 10:09 | 60.47754 | 24.93889 | 17891 ft | 365 kts | 121° |
| 2026-05-04 10:09 | 60.46520 | 24.98713 | 17676 ft | 397 kts | 126° |
| 2026-05-04 10:10 | 60.45184 | 25.03397 | 19317 ft | 363 kts | 127° |
| 2026-05-04 10:10 | 60.44135 | 25.07865 | 21140 ft | 343 kts | 118° |
| 2026-05-04 10:10 | 60.43286 | 25.12335 | 22136 ft | 342 kts | 117° |
| 2026-05-04 10:10 | 60.42499 | 25.16958 | 22344 ft | 365 kts | 114° |
| 2026-05-04 10:11 | 60.41691 | 25.22150 | 22199 ft | 397 kts | 112° |
| 2026-05-04 10:11 | 60.40890 | 25.27499 | 22729 ft | 403 kts | 112° |
| 2026-05-04 10:11 | 60.40124 | 25.32803 | 24128 ft | 380 kts | 111° |
| 2026-05-04 10:11 | 60.39450 | 25.37876 | 25284 ft | 370 kts | 110° |
| 2026-05-04 10:12 | 60.38811 | 25.43071 | 25265 ft | 396 kts | 110° |
| 2026-05-04 10:12 | 60.38062 | 25.48667 | 25112 ft | 423 kts | 110° |
| 2026-05-04 10:12 | 60.37261 | 25.54374 | 25952 ft | 418 kts | 111° |
| 2026-05-04 10:12 | 60.36490 | 25.59927 | 27149 ft | 404 kts | 110° |
| 2026-05-04 10:13 | 60.35778 | 25.65356 | 28106 ft | 398 kts | 110° |
| 2026-05-04 10:13 | 60.35081 | 25.70838 | 28441 ft | 410 kts | 109° |
| 2026-05-04 10:13 | 60.34362 | 25.76576 | 28311 ft | 433 kts | 109° |
| 2026-05-04 10:13 | 60.33605 | 25.82616 | 28286 ft | 452 kts | 109° |
| 2026-05-04 10:14 | 60.32803 | 25.88755 | 28848 ft | 451 kts | 110° |
| 2026-05-04 10:14 | 60.31956 | 25.94753 | 29849 ft | 439 kts | 111° |